Time;durP1;ratioP1;P1;durP2;ratioP2;P2;SDS_P1;SDS_P2;PMS_P1;PMS_P2;Temp;Humidity;BMP_temperature;BMP_pressure;BME280_temperature;BME280_humidity;BME280_pressure;Samples;Min_cycle;Max_cycle;Signal;HPM_P1;HPM_P2
2022/01/22 00:01:00;;;;;;;;;;;5.30;99.90;;;3.68;100.00;102145.97;4947964;28;19926;-76
2022/01/22 00:03:27;;;;;;;;;;;4.30;99.90;;;3.65;100.00;102157.97;4930811;29;19933;-77
2022/01/22 00:05:54;;;;;;;;;;;4.20;99.90;;;3.61;100.00;102153.50;4947551;29;19949;-76
2022/01/22 00:08:22;;;;;;;;;;;4.20;99.90;;;3.66;100.00;102160.63;4931873;29;19931;-76
2022/01/22 00:10:51;;;;;;;;;;;4.50;99.90;;;3.63;100.00;102155.31;4947345;29;19931;-77
2022/01/22 00:15:48;;;;;;;;;;;5.20;99.90;;;3.58;100.00;102151.69;4963425;28;19941;-75
2022/01/22 00:18:15;;;;;;;;;;;5.10;99.90;;;3.58;100.00;102150.78;4947347;28;19931;-76
2022/01/22 00:20:43;;;;;;;;;;;4.30;99.90;;;3.65;100.00;102139.75;4948721;28;20632;-77
2022/01/22 00:23:10;;;;;;;;;;;4.20;99.90;;;3.65;100.00;102145.84;4962442;28;19934;-77
2022/01/22 00:25:37;;;;;;;;;;;4.20;99.90;;;3.57;100.00;102144.72;4948698;28;19957;-77
2022/01/22 00:28:04;;;;;;;;;;;4.10;99.90;;;3.62;100.00;102140.53;4947699;29;19931;-77
2022/01/22 00:30:31;;;;;;;;;;;4.30;99.90;;;3.65;100.00;102137.16;4947472;28;20344;-77
2022/01/22 00:32:58;;;;;;;;;;;3.20;99.90;;;3.60;100.00;102134.41;4946688;29;19934;-77
2022/01/22 00:35:25;;;;;;;;;;;6.40;99.90;;;3.60;100.00;102130.94;4946600;29;19927;-77
2022/01/22 00:37:53;;;;;;;;;;;4.10;99.90;;;3.60;100.00;102134.41;4947249;29;19931;-76
2022/01/22 00:40:21;;;;;;;;;;;4.30;99.90;;;3.58;100.00;102137.78;4946877;28;20005;-77
2022/01/22 00:42:49;;;;;;;;;;;6.40;99.90;;;3.60;100.00;102144.81;4946356;28;20530;-77
2022/01/22 00:45:17;;;;;;;;;;;4.10;99.90;;;3.56;100.00;102137.75;4946258;29;19931;-77
2022/01/22 00:47:45;;;;;;;;;;;4.10;99.90;;;3.55;100.00;102134.22;4931211;29;19930;-77
2022/01/22 00:50:16;;;;;;;;;;;4.20;99.90;;;3.61;100.00;102130.09;4946805;29;20291;-77
2022/01/22 00:52:47;;;;;;;;;;;4.20;99.90;;;3.55;100.00;102130.75;4946501;29;19930;-77
2022/01/22 00:55:14;;;;;;;;;;;4.10;99.90;;;3.56;100.00;102129.94;4965557;28;19926;-76
2022/01/22 00:57:42;;;;;;;;;;;4.00;99.90;;;3.47;100.00;102132.22;4934638;28;19937;-77
2022/01/22 01:00:11;;;;;;;;;;;6.80;99.90;;;3.44;100.00;102132.13;4966192;28;20296;-77
2022/01/22 01:02:56;;;;;;;;;;;4.20;99.90;;;3.44;100.00;102135.63;4936192;28;19929;-77
2022/01/22 01:05:23;;;;;;;;;;;4.40;99.90;;;3.42;100.00;102137.25;4927132;29;19996;-77
2022/01/22 01:07:50;;;;;;;;;;;4.00;99.90;;;3.41;100.00;102138.09;4911927;29;20380;-77
2022/01/22 01:10:18;;;;;;;;;;;5.60;99.90;;;3.44;100.00;102143.44;4928737;29;19931;-77
2022/01/22 01:12:47;;;;;;;;;;;4.20;99.90;;;3.36;100.00;102137.97;4911517;28;20870;-77
2022/01/22 01:32:10;;;;;;;;;;;3.90;99.90;;;3.32;100.00;102136.06;4926941;29;19937;-77
2022/01/22 01:34:15;;;;;;;;;;;4.30;99.90;;;3.28;100.00;102138.50;4912575;28;20299;-76
2022/01/22 01:36:43;;;;;;;;;;;5.00;99.90;;;3.23;100.00;102141.81;4911846;29;20200;-76
2022/01/22 01:39:22;;;;;;;;;;;3.80;99.90;;;3.28;100.00;102149.81;4911836;29;20415;-77
2022/01/22 01:44:16;;;;;;;;;;;3.90;99.90;;;3.24;100.00;102154.00;4910046;29;20449;-77
2022/01/22 01:47:21;;;;;;;;;;;3.80;99.90;;;3.19;100.00;102152.97;4919339;29;19931;-76
2022/01/22 01:49:48;;;;;;;;;;;3.90;99.90;;;3.15;100.00;102164.09;4926817;29;19953;-77
2022/01/22 01:53:10;;;;;;;;;;;4.90;99.90;;;3.19;100.00;102162.47;4911818;29;19976;-76
2022/01/22 01:55:34;;;;;;;;;;;3.70;99.90;;;3.22;100.00;102150.47;4931730;28;19934;-76
2022/01/22 01:58:14;;;;;;;;;;;6.30;99.90;;;3.23;100.00;102160.03;4918769;29;19937;-76
2022/01/22 02:00:43;;;;;;;;;;;3.80;99.90;;;3.18;100.00;102165.91;4929964;28;20353;-77
2022/01/22 02:03:12;;;;;;;;;;;5.50;99.90;;;3.20;100.00;102170.34;4928878;29;20013;-76
2022/01/22 02:05:46;;;;;;;;;;;3.80;99.90;;;3.22;100.00;102168.69;4931082;29;20367;-77
2022/01/22 02:08:15;;;;;;;;;;;5.40;99.90;;;3.17;100.00;102175.44;4929641;29;20523;-77
2022/01/22 02:11:03;;;;;;;;;;;4.30;99.90;;;3.18;100.00;102171.09;4945916;28;20390;-77
2022/01/22 02:14:06;;;;;;;;;;;1.80;99.90;;;3.13;100.00;102165.78;4930493;29;20822;-76
2022/01/22 02:25:32;;;;;;;;;;;3.80;99.90;;;3.13;100.00;102155.38;4944860;28;19934;-78
2022/01/22 02:28:01;;;;;;;;;;;3.80;99.90;;;3.10;100.00;102152.63;4946735;28;20046;-76
2022/01/22 02:30:34;;;;;;;;;;;3.60;99.90;;;3.14;100.00;102144.13;4929136;28;19968;-77
2022/01/22 02:33:38;;;;;;;;;;;4.20;99.90;;;3.17;100.00;102149.44;4945542;28;19934;-77
2022/01/22 02:36:54;;;;;;;;;;;6.10;99.90;;;3.16;100.00;102144.16;4945319;28;19930;-76
2022/01/22 02:41:43;;;;;;;;;;;3.90;99.90;;;3.16;100.00;102141.56;4930613;29;19933;-76
2022/01/22 02:44:24;;;;;;;;;;;3.70;99.90;;;3.14;100.00;102145.81;4912550;29;19930;-76
2022/01/22 02:46:52;;;;;;;;;;;3.80;99.90;;;3.15;100.00;102145.00;4931252;29;19930;-76
2022/01/22 02:49:18;;;;;;;;;;;3.60;99.90;;;3.15;100.00;102138.09;4929738;29;19937;-76
2022/01/22 02:51:45;;;;;;;;;;;3.70;99.90;;;3.19;100.00;102133.84;4945678;28;19942;-76
2022/01/22 02:54:12;;;;;;;;;;;5.20;99.90;;;3.15;100.00;102135.50;4928116;29;20306;-76
2022/01/22 02:56:39;;;;;;;;;;;3.80;99.90;;;3.18;100.00;102135.59;4929287;29;19942;-76
2022/01/22 02:59:06;;;;;;;;;;;3.60;99.90;;;3.20;100.00;102128.72;4929529;29;19930;-76
2022/01/22 03:01:37;;;;;;;;;;;5.80;99.90;;;3.18;100.00;102127.78;4958413;28;19941;-76
2022/01/22 03:04:04;;;;;;;;;;;3.80;99.90;;;3.17;100.00;102128.63;4963644;28;19934;-76
2022/01/22 03:06:31;;;;;;;;;;;4.20;99.90;;;3.15;100.00;102135.50;4964636;28;19936;-76
2022/01/22 03:09:01;;;;;;;;;;;3.80;99.90;;;3.18;100.00;102129.50;4948394;28;19926;-76
2022/01/22 03:11:30;;;;;;;;;;;3.70;99.90;;;3.21;100.00;102135.69;4964435;28;19980;-77
2022/01/22 03:19:08;;;;;;;;;;;3.70;99.90;;;3.29;100.00;102129.88;4964444;28;19926;-77
2022/01/22 03:21:53;;;;;;;;;;;3.70;99.90;;;3.29;100.00;102128.16;4965328;28;19926;-77
2022/01/22 03:27:22;;;;;;;;;;;3.80;99.90;;;3.27;100.00;102127.22;4950456;28;20003;-76
2022/01/22 03:29:51;;;;;;;;;;;3.90;99.90;;;3.23;100.00;102133.16;4949766;28;20288;-76
2022/01/22 03:32:19;;;;;;;;;;;5.70;99.90;;;3.26;100.00;102141.94;4947383;28;19930;-76
2022/01/22 03:37:27;;;;;;;;;;;6.30;99.90;;;3.27;100.00;102142.81;4965267;28;19930;-76
2022/01/22 03:39:55;;;;;;;;;;;3.90;99.90;;;3.27;100.00;102148.03;4963782;28;19981;-76
2022/01/22 03:42:37;;;;;;;;;;;4.60;99.90;;;3.28;100.00;102149.81;4950602;28;19930;-76
2022/01/22 03:45:07;;;;;;;;;;;5.90;99.90;;;3.31;100.00;102147.31;4934599;28;19941;-76
2022/01/22 03:47:34;;;;;;;;;;;3.80;99.90;;;3.26;100.00;102149.72;4951374;28;19934;-76
2022/01/22 03:50:03;;;;;;;;;;;3.90;99.90;;;3.27;100.00;102142.81;4951038;28;20370;-77
2022/01/22 03:52:30;;;;;;;;;;;3.80;99.90;;;3.30;100.00;102140.31;4937041;29;19934;-77
2022/01/22 03:54:57;;;;;;;;;;;3.80;99.90;;;3.32;100.00;102137.78;4930244;29;19969;-76
2022/01/22 03:57:47;;;;;;;;;;;3.70;99.90;;;3.36;100.00;102147.47;4946879;28;20318;-76
2022/01/22 04:00:15;;;;;;;;;;;4.00;99.90;;;3.31;100.00;102144.69;4947599;28;20357;-77
2022/01/22 04:05:24;;;;;;;;;;;6.50;99.90;;;3.42;100.00;102133.78;4946978;28;19941;-77
2022/01/22 04:08:09;;;;;;;;;;;4.00;99.90;;;3.41;100.00;102132.88;4963520;28;19934;-77
2022/01/22 04:10:36;;;;;;;;;;;3.80;99.90;;;3.42;100.00;102125.97;4947473;29;20382;-76
2022/01/22 04:13:11;;;;;;;;;;;3.30;99.90;;;3.44;100.00;102125.22;4946258;28;19930;-76
2022/01/22 04:15:39;;;;;;;;;;;4.10;99.90;;;3.40;100.00;102128.50;4946808;28;19926;-77
2022/01/22 04:26:52;;;;;;;;;;;4.00;99.90;;;3.48;100.00;102129.66;4948962;29;19972;-77
2022/01/22 04:29:21;;;;;;;;;;;5.80;99.90;;;3.50;100.00;102129.72;4960186;28;19937;-76
2022/01/22 04:31:48;;;;;;;;;;;4.10;99.90;;;3.45;100.00;102128.69;4947008;28;19927;-77
2022/01/22 04:34:15;;;;;;;;;;;6.40;99.90;;;3.50;100.00;102121.91;4945886;28;19931;-77
2022/01/22 04:36:42;;;;;;;;;;;4.10;99.90;;;3.50;100.00;102129.72;4963090;28;20029;-76
2022/01/22 04:39:10;;;;;;;;;;;3.90;99.90;;;3.49;100.00;102125.34;4962855;28;19937;-76
2022/01/22 04:41:37;;;;;;;;;;;4.00;99.90;;;3.51;100.00;102129.78;4933233;28;19931;-76
2022/01/22 04:44:06;;;;;;;;;;;3.90;99.90;;;3.51;100.00;102118.47;4944797;29;20683;-76
2022/01/22 04:57:11;;;;;;;;;;;6.50;99.90;;;3.45;100.00;102120.88;4924845;28;19937;-77
2022/01/22 04:59:38;;;;;;;;;;;4.00;99.90;;;3.47;100.00;102125.31;4915163;29;19927;-77
2022/01/22 05:02:05;;;;;;;;;;;3.90;99.90;;;3.48;100.00;102106.25;4927690;29;20100;-77
2022/01/22 05:04:55;;;;;;;;;;;3.90;99.90;;;3.46;100.00;102118.34;4974694;28;20421;-76
2022/01/22 05:07:48;;;;;;;;;;;4.10;99.90;;;3.45;100.00;102123.47;4934322;29;19926;-76
2022/01/22 05:10:38;;;;;;;;;;;4.00;99.90;;;3.42;100.00;102123.38;4934023;29;19973;-77
2022/01/22 05:13:07;;;;;;;;;;;3.80;99.90;;;3.40;100.00;102132.00;4945635;28;19939;-77
2022/01/22 05:15:34;;;;;;;;;;;5.80;99.90;;;3.44;100.00;102137.31;4947506;28;20473;-77
2022/01/22 05:18:06;;;;;;;;;;;4.00;99.90;;;3.44;100.00;102134.72;4930362;29;20561;-76
2022/01/22 05:20:42;;;;;;;;;;;3.90;99.90;;;3.36;100.00;102145.75;4946661;28;19927;-77
2022/01/22 05:23:26;;;;;;;;;;;4.00;99.90;;;3.38;100.00;102143.19;4933167;29;19923;-76
2022/01/22 05:25:58;;;;;;;;;;;4.00;99.90;;;3.40;100.00;102145.03;4930797;29;20276;-76
2022/01/22 05:37:15;;;;;;;;;;;4.60;99.90;;;3.35;100.00;102151.78;4934022;29;19930;-76
2022/01/22 05:39:42;;;;;;;;;;;6.00;99.90;;;3.34;100.00;102144.78;4930056;29;19927;-76
2022/01/22 05:42:11;;;;;;;;;;;3.80;99.90;;;3.38;100.00;102151.00;4930251;28;20528;-77
2022/01/22 05:44:38;;;;;;;;;;;3.80;99.90;;;3.35;100.00;102143.97;4945104;28;19933;-77
2022/01/22 05:47:05;;;;;;;;;;;4.00;99.90;;;3.34;100.00;102143.94;4946125;28;20457;-77
2022/01/22 05:49:38;;;;;;;;;;;3.90;99.90;;;3.33;100.00;102142.16;4930622;29;20342;-76
2022/01/22 05:52:08;;;;;;;;;;;3.90;99.90;;;3.29;100.00;102142.91;4946695;28;19945;-76
2022/01/22 06:00:29;;;;;;;;;;;3.80;99.90;;;3.25;100.00;102147.09;4933743;28;20475;-76
2022/01/22 06:03:08;;;;;;;;;;;5.00;99.90;;;3.23;100.00;102156.56;4950228;28;19926;-76
2022/01/22 06:05:36;;;;;;;;;;;3.90;99.90;;;3.21;100.00;102163.44;4948938;28;19969;-78
2022/01/22 06:08:04;;;;;;;;;;;4.80;99.90;;;3.24;100.00;102163.53;4949166;28;20318;-77
2022/01/22 06:10:34;;;;;;;;;;;3.90;99.90;;;3.27;100.00;102163.66;4965004;28;19926;-77
2022/01/22 06:13:17;;;;;;;;;;;5.90;99.90;;;3.28;100.00;102167.13;4964219;28;20354;-77
2022/01/22 06:15:47;;;;;;;;;;;2.60;99.90;;;3.18;100.00;102169.41;4965190;28;19973;-76
2022/01/22 06:18:27;;;;;;;;;;;3.90;99.90;;;3.23;100.00;102164.38;4964937;28;19933;-77
2022/01/22 06:20:57;;;;;;;;;;;3.80;99.90;;;3.21;100.00;102163.44;4949189;28;19942;-77
2022/01/22 06:23:24;;;;;;;;;;;3.70;99.90;;;3.26;100.00;102167.06;4964372;28;20485;-77
2022/01/22 06:25:51;;;;;;;;;;;3.80;99.90;;;3.24;100.00;102163.53;4966491;28;19937;-77
2022/01/22 06:28:18;;;;;;;;;;;3.80;99.90;;;3.28;100.00;102159.31;4933161;28;20425;-76
2022/01/22 06:30:46;;;;;;;;;;;5.70;99.90;;;3.26;100.00;102164.47;4948951;28;20028;-77
2022/01/22 06:33:13;;;;;;;;;;;3.70;99.90;;;3.28;100.00;102173.22;4948006;28;19932;-76
2022/01/22 06:35:40;;;;;;;;;;;3.60;99.90;;;3.26;100.00;102172.28;4932992;28;19980;-76
2022/01/22 06:38:09;;;;;;;;;;;5.10;99.90;;;3.24;100.00;102172.22;4948844;28;19961;-76
2022/01/22 06:44:24;;;;;;;;;;;3.30;99.90;;;3.16;100.00;102177.97;4965020;28;19927;-76
2022/01/22 06:46:59;;;;;;;;;;;3.80;99.90;;;3.17;100.00;102183.25;4950310;28;19945;-76
2022/01/22 06:49:44;;;;;;;;;;;5.70;99.90;;;3.22;100.00;102179.09;4951692;28;19961;-75
2022/01/22 06:52:34;;;;;;;;;;;5.30;99.90;;;3.24;100.00;102187.81;4965041;28;19933;-76
2022/01/22 06:55:06;;;;;;;;;;;3.80;99.90;;;3.22;100.00;102186.88;4948636;28;19930;-76
2022/01/22 06:57:33;;;;;;;;;;;3.80;99.90;;;3.22;100.00;102186.03;4932802;28;19972;-76
2022/01/22 07:00:04;;;;;;;;;;;3.80;99.90;;;3.20;100.00;102198.06;4948809;28;19984;-75
2022/01/22 07:02:33;;;;;;;;;;;3.80;99.90;;;3.25;100.00;102199.13;4928650;29;19937;-76
2022/01/22 07:05:00;;;;;;;;;;;3.90;99.90;;;3.20;100.00;102204.16;4942653;28;19930;-76
2022/01/22 07:07:49;;;;;;;;;;;5.80;99.90;;;3.30;100.00;102204.50;4964269;28;20306;-76
2022/01/22 07:10:17;;;;;;;;;;;5.90;99.90;;;3.30;100.00;102209.72;4964101;28;19931;-76
2022/01/22 07:12:44;;;;;;;;;;;3.90;99.90;;;3.37;100.00;102211.69;4947347;28;19938;-76
2022/01/22 07:15:11;;;;;;;;;;;6.10;99.90;;;3.32;100.00;102221.91;4963761;28;19934;-76
2022/01/22 07:17:40;;;;;;;;;;;5.80;99.90;;;3.28;100.00;102219.16;4949785;28;19930;-76
2022/01/22 07:20:18;;;;;;;;;;;5.60;99.90;;;3.33;100.00;102220.22;4951442;28;19962;-75
2022/01/22 07:22:52;;;;;;;;;;;3.90;99.90;;;3.35;100.00;102218.56;4952037;28;20039;-76
2022/01/22 07:25:42;;;;;;;;;;;3.90;99.90;;;3.35;100.00;102215.94;4967312;28;19980;-76
2022/01/22 07:28:27;;;;;;;;;;;3.90;99.90;;;3.33;100.00;102220.22;4967949;28;19953;-76
2022/01/22 07:30:54;;;;;;;;;;;5.10;99.90;;;3.39;100.00;102220.44;4950031;28;20019;-77
2022/01/22 07:33:23;;;;;;;;;;;4.10;99.90;;;3.40;100.00;102220.50;4942969;28;19934;-76
2022/01/22 07:35:53;;;;;;;;;;;3.90;99.90;;;3.41;100.00;102216.16;4947818;28;20008;-76
2022/01/22 07:38:21;;;;;;;;;;;3.90;99.90;;;3.45;100.00;102218.06;4947811;29;20303;-76
2022/01/22 07:40:49;;;;;;;;;;;3.00;99.90;;;3.50;100.00;102223.41;4932252;29;20615;-77
2022/01/22 07:43:24;;;;;;;;;;;6.20;99.90;;;3.49;100.00;102224.22;4928437;29;20245;-76
2022/01/22 07:46:30;;;;;;;;;;;5.60;99.90;;;3.49;100.00;102217.31;4961159;28;20302;-75
2022/01/22 07:49:14;;;;;;;;;;;4.50;99.90;;;3.48;100.00;102214.66;4950909;28;20303;-77
2022/01/22 07:51:44;;;;;;;;;;;4.80;99.90;;;3.58;100.00;102208.94;4938414;28;20021;-76
2022/01/22 07:54:11;;;;;;;;;;;4.80;99.90;;;3.58;100.00;102211.56;4920504;29;20319;-76
2022/01/22 07:56:38;;;;;;;;;;;5.30;99.90;;;3.61;100.00;102221.19;4961808;28;19941;-76
2022/01/22 07:59:06;;;;;;;;;;;4.00;99.90;;;3.59;100.00;102210.72;4930671;29;19935;-77
2022/01/22 08:01:38;;;;;;;;;;;4.20;99.90;;;3.62;100.00;102205.63;4914453;29;19931;-77
2022/01/22 08:04:35;;;;;;;;;;;4.30;99.90;;;3.63;100.00;102196.09;4944836;29;19930;-77
2022/01/22 08:07:34;;;;;;;;;;;4.20;99.90;;;3.68;100.00;102207.53;4936689;29;19930;-77
2022/01/22 08:10:31;;;;;;;;;;;4.20;99.90;;;3.65;100.00;102203.09;4964953;28;20413;-78
2022/01/22 08:12:58;;;;;;;;;;;5.20;99.90;;;3.68;100.00;102212.75;4917036;28;19938;-77
2022/01/22 08:15:25;;;;;;;;;;;4.10;99.90;;;3.74;100.00;102202.53;4948758;28;20291;-78
2022/01/22 08:17:53;;;;;;;;;;;5.50;99.90;;;3.78;100.00;102195.72;4964945;28;19930;-78
2022/01/22 08:20:21;;;;;;;;;;;4.30;99.90;;;3.77;100.00;102209.56;4980248;28;19926;-78
2022/01/22 08:22:51;;;;;;;;;;;6.00;99.90;;;3.80;100.00;102218.38;4979512;28;19958;-77
2022/01/22 08:25:39;;;;;;;;;;;6.90;99.90;;;3.80;100.00;102218.38;4975325;28;19937;-77
2022/01/22 08:36:43;;;;;;;;;;;4.40;99.90;;;3.87;100.00;102227.28;4930692;28;19930;-77
2022/01/22 08:39:11;;;;;;;;;;;4.50;99.90;;;3.92;100.00;102240.47;4932287;29;19935;-76
2022/01/22 08:41:38;;;;;;;;;;;5.00;99.90;;;3.93;100.00;102237.03;4936455;28;19995;-77
2022/01/22 08:44:06;;;;;;;;;;;6.60;99.90;;;3.92;100.00;102215.28;4932397;29;20327;-77
2022/01/22 08:46:34;;;;;;;;;;;4.60;99.90;;;3.94;100.00;102220.56;4932721;29;19930;-78
2022/01/22 08:49:04;;;;;;;;;;;6.80;99.90;;;3.96;100.00;102224.97;4933359;29;19953;-77
2022/01/22 08:51:35;;;;;;;;;;;4.40;99.90;;;4.03;100.00;102215.66;4948584;28;19934;-78
2022/01/22 08:54:02;;;;;;;;;;;4.80;99.90;;;4.02;100.00;102213.00;4917365;29;19978;-77
2022/01/22 08:56:29;;;;;;;;;;;4.50;99.90;;;4.06;100.00;102207.97;4917473;29;19997;-77
2022/01/22 08:58:56;;;;;;;;;;;5.80;99.90;;;4.08;100.00;102221.00;4951706;28;19940;-78
2022/01/22 09:01:32;;;;;;;;;;;5.50;99.90;;;4.14;100.00;102225.53;4952603;28;19984;-77
2022/01/22 09:04:09;;;;;;;;;;;5.40;99.90;;;4.08;100.00;102227.13;4928973;29;19926;-77
2022/01/22 09:07:12;;;;;;;;;;;4.80;99.90;;;4.16;100.00;102218.66;4919242;29;19935;-79
2022/01/22 09:09:48;;;;;;;;;;;4.60;99.90;;;4.16;100.00;102232.59;4935691;29;19927;-79
2022/01/22 09:12:41;;;;;;;;;;;5.60;99.90;;;4.18;100.00;102236.13;4968480;28;19970;-80
2022/01/22 09:15:24;;;;;;;;;;;5.30;99.90;;;4.21;100.00;102245.72;4923392;29;19938;-79
2022/01/22 09:17:52;;;;;;;;;;;4.70;99.90;;;4.20;100.00;102243.97;4950839;28;20024;-79
2022/01/22 09:23:10;;;;;;;;;;;4.70;99.90;;;4.28;100.00;102247.72;4933836;29;19931;-79
2022/01/22 09:25:37;;;;;;;;;;;4.70;99.90;;;4.24;100.00;102251.94;4935186;28;19992;-80
2022/01/22 09:28:05;;;;;;;;;;;4.70;99.90;;;4.31;100.00;102249.56;4937320;29;19930;-79
2022/01/22 09:30:32;;;;;;;;;;;4.90;99.90;;;4.28;100.00;102252.94;4923312;29;19926;-79
2022/01/22 09:33:00;;;;;;;;;;;6.90;99.90;;;4.34;100.00;102260.94;4938623;29;19980;-80
2022/01/22 09:35:45;;;;;;;;;;;4.80;99.90;;;4.48;100.00;102266.59;4951958;29;20054;-80
2022/01/22 09:38:38;;;;;;;;;;;5.80;99.90;;;4.52;100.00;102265.84;4938312;29;20375;-79
2022/01/22 09:41:27;;;;;;;;;;;6.10;99.90;;;4.50;100.00;102277.06;4944911;28;19938;-78
2022/01/22 09:44:00;;;;;;;;;;;5.40;99.90;;;4.53;100.00;102272.84;4949423;29;20371;-80
2022/01/22 09:46:47;;;;;;;;;;;3.70;99.90;;;4.51;100.00;102269.31;4951510;29;20077;-79
2022/01/22 09:49:38;;;;;;;;;;;5.10;99.90;;;4.51;100.00;102279.75;4949949;28;20065;-80
2022/01/22 09:52:23;;;;;;;;;;;5.70;99.90;;;4.56;100.00;102279.88;4963547;28;19972;-79
2022/01/22 09:55:26;;;;;;;;;;;6.50;99.90;;;4.53;100.00;102283.28;4997338;28;19930;-79
2022/01/22 09:58:11;;;;;;;;;;;5.50;99.90;;;4.51;100.00;102284.94;4929148;28;19989;-78
2022/01/22 10:01:37;;;;;;;;;;;5.40;99.90;;;4.55;100.00;102298.97;4944278;28;19935;-80
2022/01/22 10:04:10;;;;;;;;;;;5.00;99.90;;;4.53;100.00;102290.22;4901676;29;19926;-79
2022/01/22 10:06:56;;;;;;;;;;;4.80;99.90;;;4.58;100.00;102287.75;4951444;29;19936;-78
2022/01/22 10:09:53;;;;;;;;;;;5.00;99.90;;;4.60;100.00;102294.78;4946007;29;19931;-78
2022/01/22 10:12:51;;;;;;;;;;;7.60;99.90;;;4.63;100.00;102291.41;4932389;28;19931;-79
2022/01/22 10:15:22;;;;;;;;;;;5.10;99.90;;;4.67;100.00;102294.13;4917940;29;19998;-78
2022/01/22 10:17:55;;;;;;;;;;;5.20;99.90;;;4.65;100.00;102301.03;4903767;29;19930;-78
2022/01/22 10:20:32;;;;;;;;;;;5.10;99.90;;;4.62;100.00;102294.84;4900594;29;20335;-74
2022/01/22 10:23:05;;;;;;;;;;;5.10;99.90;;;4.66;100.00;102304.53;4943000;28;20395;-75
2022/01/22 10:25:42;;;;;;;;;;;5.10;99.90;;;4.69;100.00;102299.41;4965022;29;20416;-76
2022/01/22 10:28:15;;;;;;;;;;;5.20;99.90;;;4.67;100.00;102301.94;4914853;29;19956;-76
2022/01/22 10:30:44;;;;;;;;;;;6.80;99.90;;;4.73;100.00;102296.03;4945785;28;19941;-76
2022/01/22 10:33:27;;;;;;;;;;;5.00;99.90;;;4.72;100.00;102293.41;4929546;29;19937;-76
2022/01/22 10:36:21;;;;;;;;;;;5.10;99.90;;;4.75;100.00;102285.66;4942318;29;20060;-76
2022/01/22 10:39:10;;;;;;;;;;;5.20;99.90;;;4.76;100.00;102279.63;4944306;29;19937;-76
2022/01/22 10:41:42;;;;;;;;;;;6.20;99.90;;;4.83;100.00;102284.16;4924905;28;19952;-77
2022/01/22 10:44:15;;;;;;;;;;;5.30;99.90;;;4.88;100.00;102280.00;4929443;28;19931;-76
2022/01/22 10:46:44;;;;;;;;;;;5.40;99.90;;;4.92;100.00;102275.78;4952563;29;19934;-78
2022/01/22 10:49:19;;;;;;;;;;;5.30;99.90;;;4.90;100.00;102278.31;4947394;29;20348;-75
2022/01/22 10:52:00;;;;;;;;;;;5.50;99.90;;;4.98;100.00;102270.72;4950067;28;20149;-77
2022/01/22 10:54:29;;;;;;;;;;;5.50;99.90;;;4.97;100.00;102268.94;4948167;28;19930;-76
2022/01/22 10:57:12;;;;;;;;;;;6.00;99.90;;;5.02;100.00;102266.50;4948545;29;19934;-76
2022/01/22 10:59:48;;;;;;;;;;;5.50;99.90;;;5.03;100.00;102269.13;4959930;28;19926;-76
2022/01/22 11:02:19;;;;;;;;;;;5.60;99.90;;;5.00;100.00;102271.66;4948555;28;19941;-73
2022/01/22 11:04:46;;;;;;;;;;;5.80;99.90;;;5.07;100.00;102262.28;4949614;28;19935;-74
2022/01/22 11:07:18;;;;;;;;;;;5.60;99.90;;;4.99;100.00;102269.88;4949979;29;19927;-77
2022/01/22 11:09:53;;;;;;;;;;;5.50;99.90;;;5.04;100.00;102263.06;4948501;29;20337;-77
2022/01/22 11:12:20;;;;;;;;;;;7.90;99.90;;;5.16;100.00;102266.88;4948160;28;19926;-78
2022/01/22 11:14:47;;;;;;;;;;;5.60;99.90;;;5.09;100.00;102260.59;4959095;28;19931;-77
2022/01/22 11:17:14;;;;;;;;;;;7.30;99.90;;;5.17;100.00;102263.44;4964984;28;20639;-76
2022/01/22 11:19:44;;;;;;;;;;;6.30;99.90;;;5.14;100.00;102266.81;4965812;28;20015;-76
2022/01/22 11:22:13;;;;;;;;;;;5.70;99.90;;;5.10;100.00;102265.88;4955909;28;19937;-76
2022/01/22 11:24:48;;;;;;;;;;;5.60;99.90;;;5.18;100.00;102273.03;4949205;29;19945;-76
2022/01/22 11:27:19;;;;;;;;;;;5.60;99.90;;;5.19;100.00;102267.84;4934562;29;19930;-77
2022/01/22 11:29:58;;;;;;;;;;;5.60;99.90;;;5.27;100.00;102272.41;4949275;29;19931;-76
2022/01/22 11:32:35;;;;;;;;;;;5.60;99.90;;;5.20;100.00;102276.56;4951610;29;19980;-74
2022/01/22 11:35:06;;;;;;;;;;;5.80;99.90;;;5.29;100.00;102275.94;4950606;29;19931;-77
2022/01/22 11:37:46;;;;;;;;;;;5.60;99.90;;;5.27;100.00;102281.13;4956355;28;20029;-76
2022/01/22 11:40:19;;;;;;;;;;;5.70;99.90;;;5.27;100.00;102281.13;4952670;28;19934;-77
2022/01/22 11:43:03;;;;;;;;;;;5.70;99.90;;;5.33;100.00;102273.47;4926428;29;19937;-76
2022/01/22 11:45:33;;;;;;;;;;;5.70;99.90;;;5.43;100.00;102277.22;4950808;29;19927;-76
2022/01/22 11:48:18;;;;;;;;;;;8.00;99.90;;;5.44;100.00;102278.97;4933120;29;20553;-77
2022/01/22 11:51:16;;;;;;;;;;;6.20;99.90;;;5.39;100.00;102273.66;4793968;28;19930;-77
2022/01/22 11:53:54;;;;;;;;;;;5.80;99.90;;;5.47;100.00;102263.44;4940879;28;19930;-75
2022/01/22 11:56:25;;;;;;;;;;;5.70;99.90;;;5.56;100.00;102268.00;4926257;28;19965;-76
2022/01/22 11:58:55;;;;;;;;;;;7.00;99.90;;;5.56;100.00;102262.78;4948165;28;20292;-76
2022/01/22 12:01:56;;;;;;;;;;;5.90;99.90;;;5.53;100.00;102267.91;4954868;28;19962;-77
2022/01/22 12:04:40;;;;;;;;;;;6.00;99.90;;;5.57;100.00;102268.88;4945842;29;19922;-77
2022/01/22 12:07:07;;;;;;;;;;;6.00;99.90;;;5.54;100.00;102264.44;4934755;29;19931;-76
2022/01/22 12:10:17;;;;;;;;;;;6.00;99.90;;;5.59;100.00;102257.66;4952743;28;20115;-76
2022/01/22 12:15:34;;;;;;;;;;;7.30;99.90;;;5.63;100.00;102256.00;4979273;28;19927;-76
2022/01/22 12:18:04;;;;;;;;;;;5.00;99.90;;;5.67;100.00;102253.50;4936342;29;20012;-77
2022/01/22 12:23:07;;;;;;;;;;;6.10;99.90;;;5.66;100.00;102249.13;4947902;29;20621;-76
2022/01/22 12:25:34;;;;;;;;;;;6.10;99.90;;;5.69;100.00;102240.50;4946875;29;20024;-76
2022/01/22 12:28:03;;;;;;;;;;;6.10;99.90;;;5.70;100.00;102239.66;4948206;28;19930;-76
2022/01/22 12:30:44;;;;;;;;;;;6.00;99.90;;;5.74;100.00;102241.47;4948629;28;20290;-76
2022/01/22 12:33:15;;;;;;;;;;;5.20;99.90;;;5.78;100.00;102247.69;4946489;29;19958;-77
2022/01/22 12:35:46;;;;;;;;;;;8.00;99.90;;;5.76;100.00;102239.78;4946152;29;19930;-77
2022/01/22 12:38:32;;;;;;;;;;;6.20;99.90;;;5.74;100.00;102238.00;4929627;29;20433;-76
2022/01/22 12:41:27;;;;;;;;;;;6.10;99.90;;;5.87;100.00;102237.47;4932217;29;19937;-76
2022/01/22 12:44:25;;;;;;;;;;;6.30;99.90;;;5.87;100.00;102241.81;4945296;29;19937;-77
2022/01/22 12:46:58;;;;;;;;;;;6.20;99.90;;;5.88;100.00;102236.63;4938464;29;19927;-77
2022/01/22 12:49:27;;;;;;;;;;;6.30;99.90;;;5.90;100.00;102237.56;4915718;29;20005;-76
2022/01/22 12:52:03;;;;;;;;;;;6.30;99.90;;;5.92;100.00;102251.53;4948262;28;20323;-77
2022/01/22 12:54:38;;;;;;;;;;;6.40;99.90;;;5.92;100.00;102240.19;4943790;28;19934;-76
2022/01/22 12:57:19;;;;;;;;;;;6.30;99.90;;;5.92;100.00;102245.41;4964079;28;19984;-76
2022/01/22 13:00:01;;;;;;;;;;;6.30;99.90;;;6.00;100.00;102241.28;4975580;28;19934;-76
2022/01/22 13:02:43;;;;;;;;;;;6.30;99.90;;;6.01;100.00;102244.75;4946324;29;20000;-76
2022/01/22 13:05:12;;;;;;;;;;;6.40;99.90;;;6.04;100.00;102232.69;4962064;28;19937;-76
2022/01/22 13:07:55;;;;;;;;;;;6.90;99.90;;;6.01;100.00;102236.91;4948134;28;19931;-76
2022/01/22 13:10:53;;;;;;;;;;;6.50;99.90;;;6.07;100.00;102226.66;4938214;28;19926;-76
2022/01/22 13:13:20;;;;;;;;;;;6.50;99.90;;;6.08;100.00;102231.06;4947589;28;20084;-77
2022/01/22 13:15:59;;;;;;;;;;;6.60;99.90;;;6.18;100.00;102230.44;4939473;29;19930;-77
2022/01/22 13:18:37;;;;;;;;;;;6.50;99.90;;;6.21;100.00;102234.84;4940791;29;19935;-77
2022/01/22 13:21:06;;;;;;;;;;;7.70;99.90;;;6.18;100.00;102230.44;4936442;29;20477;-77
2022/01/22 13:23:33;;;;;;;;;;;6.60;99.90;;;6.20;100.00;102233.97;4933145;29;19942;-78
2022/01/22 13:26:00;;;;;;;;;;;6.50;99.90;;;6.24;100.00;102232.28;4946645;29;19930;-79
2022/01/22 13:28:28;;;;;;;;;;;8.40;99.90;;;6.21;100.00;102230.50;4940904;29;19931;-76
2022/01/22 13:31:01;;;;;;;;;;;6.70;99.90;;;6.23;100.00;102231.44;4926926;29;19941;-76